Time;durP1;ratioP1;P1;durP2;ratioP2;P2;SDS_P1;SDS_P2;PMS_P1;PMS_P2;Temp;Humidity;BMP_temperature;BMP_pressure;BME280_temperature;BME280_humidity;BME280_pressure;Samples;Min_cycle;Max_cycle;Signal;HPM_P1;HPM_P2
2022/05/09 00:00:19;;;;;;;20.42;4.38;;;6.80;99.90;;;;;;4970965;28;20519;-71
2022/05/09 00:02:45;;;;;;;14.55;2.92;;;6.70;99.90;;;;;;4984350;28;20056;-72
2022/05/09 00:05:15;;;;;;;18.00;3.22;;;6.70;99.90;;;;;;5005542;28;20045;-72
2022/05/09 00:07:41;;;;;;;22.98;3.30;;;6.70;99.90;;;;;;5004271;28;20108;-72
2022/05/09 00:10:08;;;;;;;21.60;3.17;;;6.60;99.90;;;;;;5003536;28;20042;-71
2022/05/09 00:12:34;;;;;;;20.10;3.47;;;6.60;99.90;;;;;;5004301;28;20054;-72
2022/05/09 00:15:00;;;;;;;14.20;3.38;;;6.50;99.90;;;;;;5002510;28;20496;-71
2022/05/09 00:17:26;;;;;;;15.30;3.03;;;6.50;99.90;;;;;;5004044;28;20057;-71
2022/05/09 00:19:51;;;;;;;19.73;4.00;;;6.40;99.90;;;;;;5002293;28;20088;-72
2022/05/09 00:22:17;;;;;;;19.17;3.08;;;6.30;99.90;;;;;;5024239;28;20052;-72
2022/05/09 00:24:43;;;;;;;17.88;3.10;;;6.30;99.90;;;;;;4970648;28;20046;-72
2022/05/09 00:27:08;;;;;;;19.05;3.20;;;6.30;99.90;;;;;;5005242;28;20096;-71
2022/05/09 00:29:34;;;;;;;16.27;3.22;;;6.30;99.90;;;;;;4986935;28;20065;-71
2022/05/09 00:32:00;;;;;;;13.25;2.90;;;6.30;99.90;;;;;;5007402;28;20316;-71
2022/05/09 00:34:26;;;;;;;16.52;3.22;;;6.30;99.90;;;;;;5008217;28;20467;-71
2022/05/09 00:36:52;;;;;;;10.75;2.72;;;6.20;99.90;;;;;;5006795;28;20096;-72
2022/05/09 00:39:19;;;;;;;17.15;3.08;;;6.10;99.90;;;;;;5027832;28;20116;-71
2022/05/09 00:41:45;;;;;;;19.60;3.47;;;6.10;99.90;;;;;;4993461;28;20665;-71
2022/05/09 00:44:27;;;;;;;17.48;3.38;;;6.10;99.90;;;;;;5028777;28;20049;-71
2022/05/09 00:46:55;;;;;;;21.27;4.40;;;6.10;99.90;;;;;;5011239;28;20042;-71
2022/05/09 00:50:00;;;;;;;13.80;3.30;;;6.00;99.90;;;;;;5027502;28;20065;-71
2022/05/09 00:52:38;;;;;;;19.38;3.72;;;6.10;99.90;;;;;;4970658;28;20141;-71
2022/05/09 00:55:11;;;;;;;20.20;3.25;;;6.00;99.90;;;;;;5021674;28;20045;-71
2022/05/09 00:58:11;;;;;;;20.67;3.28;;;6.00;99.90;;;;;;5026700;28;20054;-71
2022/05/09 01:00:39;;;;;;;14.35;3.20;;;6.00;99.90;;;;;;4998741;28;20418;-71
2022/05/09 01:03:18;;;;;;;15.60;2.72;;;5.90;99.90;;;;;;5006985;28;20046;-71
2022/05/09 01:05:50;;;;;;;15.07;3.10;;;5.80;99.90;;;;;;4991121;28;20045;-71
2022/05/09 01:08:17;;;;;;;10.18;2.70;;;5.80;99.90;;;;;;5009817;28;20049;-71
2022/05/09 01:10:43;;;;;;;16.48;2.83;;;5.70;99.90;;;;;;5025842;28;20071;-71
2022/05/09 01:13:12;;;;;;;14.35;3.50;;;5.80;99.90;;;;;;5028901;28;20488;-71
2022/05/09 01:15:40;;;;;;;16.23;3.55;;;5.70;99.90;;;;;;5007189;28;20038;-71
2022/05/09 01:18:09;;;;;;;21.05;3.97;;;5.70;99.90;;;;;;5041588;28;20403;-71
2022/05/09 01:20:35;;;;;;;21.35;3.80;;;5.70;99.90;;;;;;5006464;28;20108;-71
2022/05/09 01:23:03;;;;;;;13.10;2.83;;;5.70;99.90;;;;;;5040231;28;20049;-71
2022/05/09 01:25:29;;;;;;;19.67;3.03;;;5.70;99.90;;;;;;5007430;28;20046;-71
2022/05/09 01:27:55;;;;;;;11.07;2.58;;;5.70;99.90;;;;;;5006984;28;20136;-71
2022/05/09 01:30:26;;;;;;;14.68;2.80;;;5.70;99.90;;;;;;5009691;28;20080;-71
2022/05/09 01:33:09;;;;;;;22.35;3.10;;;5.60;99.90;;;;;;5006300;28;20042;-71
2022/05/09 01:35:58;;;;;;;20.75;2.70;;;5.60;99.90;;;;;;5009596;28;20116;-72
2022/05/09 01:38:30;;;;;;;16.73;3.07;;;5.70;99.90;;;;;;4993414;28;20042;-71
2022/05/09 01:40:56;;;;;;;9.80;3.05;;;5.70;99.90;;;;;;5006599;28;20558;-71
2022/05/09 01:43:34;;;;;;;15.27;3.13;;;5.60;99.90;;;;;;5041615;28;20436;-71
2022/05/09 01:46:02;;;;;;;18.75;2.58;;;5.60;99.90;;;;;;5006916;28;20054;-71
2022/05/09 01:51:13;;;;;;;15.05;2.85;;;5.60;99.90;;;;;;5025893;28;20503;-71
2022/05/09 01:53:39;;;;;;;14.48;3.08;;;5.50;99.90;;;;;;5027321;28;20128;-71
2022/05/09 01:56:05;;;;;;;19.92;3.40;;;5.50;99.90;;;;;;5039976;28;20129;-71
2022/05/09 01:58:31;;;;;;;15.20;3.83;;;5.40;99.90;;;;;;5005696;28;20045;-71
2022/05/09 02:00:57;;;;;;;11.07;2.60;;;5.40;99.90;;;;;;4990442;28;20045;-71
2022/05/09 02:03:28;;;;;;;21.23;3.00;;;5.40;99.90;;;;;;4997796;28;20112;-71
2022/05/09 02:05:54;;;;;;;7.63;2.20;;;5.40;99.90;;;;;;4991448;28;20500;-71
2022/05/09 02:08:20;;;;;;;14.55;2.83;;;5.40;99.90;;;;;;4992232;28;20072;-71
2022/05/09 02:10:45;;;;;;;9.50;1.88;;;5.40;99.90;;;;;;5006142;28;20103;-71
2022/05/09 02:13:11;;;;;;;8.40;1.60;;;5.40;99.90;;;;;;4991609;28;20137;-71
2022/05/09 02:15:37;;;;;;;8.32;1.92;;;5.40;99.90;;;;;;5038775;28;20522;-71
2022/05/09 02:18:03;;;;;;;14.90;2.30;;;5.50;99.90;;;;;;5007897;28;20046;-71
2022/05/09 02:20:29;;;;;;;11.52;2.47;;;5.50;99.90;;;;;;5005386;28;20049;-70
2022/05/09 02:22:55;;;;;;;10.73;2.40;;;5.50;99.90;;;;;;4989881;28;20460;-71
2022/05/09 02:25:26;;;;;;;11.43;2.58;;;5.50;99.90;;;;;;4991966;28;20042;-71
2022/05/09 02:27:52;;;;;;;11.40;2.75;;;5.50;99.90;;;;;;4991354;28;20046;-72
2022/05/09 02:30:18;;;;;;;13.32;3.00;;;5.30;99.90;;;;;;4991786;28;20045;-71
2022/05/09 02:32:44;;;;;;;10.45;2.90;;;5.20;99.90;;;;;;5005054;28;20057;-71
2022/05/09 02:35:10;;;;;;;12.35;3.03;;;5.10;99.90;;;;;;4991020;28;20096;-71
2022/05/09 02:37:36;;;;;;;11.75;2.60;;;5.00;99.90;;;;;;5006088;28;20070;-71
2022/05/09 02:40:03;;;;;;;12.90;2.72;;;4.90;99.90;;;;;;4989803;28;20481;-71
2022/05/09 02:42:28;;;;;;;12.55;3.05;;;4.80;99.90;;;;;;5037539;28;20127;-71
2022/05/09 02:44:54;;;;;;;8.13;2.22;;;4.70;99.90;;;;;;5006080;28;20124;-71
2022/05/09 02:47:20;;;;;;;8.30;2.60;;;4.70;99.90;;;;;;4991804;28;20050;-71
2022/05/09 02:49:46;;;;;;;8.93;2.47;;;4.60;99.90;;;;;;5021542;28;20393;-71
2022/05/09 02:52:12;;;;;;;17.23;3.17;;;4.50;99.90;;;;;;5005135;28;20049;-71
2022/05/09 02:54:38;;;;;;;11.82;2.80;;;4.40;99.90;;;;;;4988469;28;20045;-71
2022/05/09 02:57:05;;;;;;;13.80;3.08;;;4.30;99.90;;;;;;4989304;28;20100;-71
2022/05/09 02:59:31;;;;;;;20.02;3.33;;;4.20;99.90;;;;;;5000825;28;20045;-71
2022/05/09 03:01:57;;;;;;;18.10;3.45;;;4.20;99.90;;;;;;4998810;28;20123;-70
2022/05/09 03:04:41;;;;;;;13.75;3.88;;;4.20;99.90;;;;;;4988475;28;20089;-71
2022/05/09 03:07:11;;;;;;;16.30;4.20;;;4.20;99.90;;;;;;4989014;28;20053;-70
2022/05/09 03:09:38;;;;;;;12.80;3.50;;;4.20;99.90;;;;;;4969965;28;20558;-70
2022/05/09 03:12:05;;;;;;;13.50;3.80;;;4.20;99.90;;;;;;4969090;28;20094;-71
2022/05/09 03:14:31;;;;;;;15.05;3.55;;;4.30;99.90;;;;;;4969294;28;20054;-71
2022/05/09 03:16:57;;;;;;;9.57;3.75;;;4.30;99.90;;;;;;4968935;28;20050;-71
2022/05/09 03:19:24;;;;;;;17.15;4.18;;;4.30;99.90;;;;;;4980149;28;20049;-70
2022/05/09 03:21:51;;;;;;;16.85;3.42;;;4.30;99.90;;;;;;4991547;28;20052;-71
2022/05/09 03:24:17;;;;;;;18.77;4.05;;;4.30;99.90;;;;;;5008138;28;20041;-70
2022/05/09 03:26:43;;;;;;;9.27;3.40;;;4.20;99.90;;;;;;5026017;28;20053;-71
2022/05/09 03:29:10;;;;;;;13.10;3.78;;;4.20;99.90;;;;;;4992353;28;20123;-70
2022/05/09 03:31:36;;;;;;;12.13;3.33;;;4.20;99.90;;;;;;4989654;28;20062;-70
2022/05/09 03:34:03;;;;;;;15.43;3.67;;;4.20;99.90;;;;;;5005763;28;20097;-70
2022/05/09 03:36:29;;;;;;;10.35;3.10;;;4.20;99.90;;;;;;5005445;28;20054;-70
2022/05/09 03:38:56;;;;;;;24.48;4.47;;;4.20;99.90;;;;;;4971466;28;20038;-71
2022/05/09 03:41:22;;;;;;;13.57;3.72;;;4.20;99.90;;;;;;4999761;28;20057;-71
2022/05/09 03:43:47;;;;;;;15.75;4.13;;;4.20;99.90;;;;;;5007470;28;20045;-71
2022/05/09 03:46:13;;;;;;;10.50;3.78;;;4.20;99.90;;;;;;4975948;28;20065;-70
2022/05/09 03:48:39;;;;;;;11.38;3.50;;;4.20;99.90;;;;;;5007808;28;20057;-70
2022/05/09 03:51:05;;;;;;;14.82;4.38;;;4.30;99.90;;;;;;5006078;28;20495;-71
2022/05/09 03:53:31;;;;;;;10.93;4.05;;;4.30;99.90;;;;;;4992292;28;20049;-70
2022/05/09 03:55:57;;;;;;;18.77;4.32;;;4.30;99.90;;;;;;5007315;28;20052;-70
2022/05/09 03:58:23;;;;;;;22.75;4.72;;;4.40;99.90;;;;;;5008234;28;20076;-71
2022/05/09 04:00:49;;;;;;;19.08;4.93;;;4.40;99.90;;;;;;5024571;28;20085;-70
2022/05/09 04:03:15;;;;;;;14.20;4.25;;;4.30;99.90;;;;;;4989254;28;21004;-70
2022/05/09 04:05:41;;;;;;;15.32;4.55;;;4.40;99.90;;;;;;4989130;28;20050;-70
2022/05/09 04:08:11;;;;;;;21.58;4.18;;;4.50;99.90;;;;;;4992204;28;20060;-70
2022/05/09 04:10:37;;;;;;;19.57;4.37;;;4.50;99.90;;;;;;4991980;28;20442;-70
2022/05/09 04:13:04;;;;;;;13.88;4.28;;;4.50;99.90;;;;;;4992626;28;20060;-71
2022/05/09 04:18:17;;;;;;;13.68;3.72;;;4.60;99.90;;;;;;4991862;28;20097;-70
2022/05/09 04:20:44;;;;;;;14.52;3.90;;;4.60;99.90;;;;;;4991168;28;20116;-70
2022/05/09 04:23:09;;;;;;;17.65;3.85;;;4.60;99.90;;;;;;4998781;28;20046;-70
2022/05/09 04:25:37;;;;;;;14.45;3.10;;;4.60;99.90;;;;;;5011017;28;20567;-70
2022/05/09 04:28:05;;;;;;;14.88;3.92;;;4.50;99.90;;;;;;5012263;28;20037;-70
2022/05/09 04:30:34;;;;;;;10.60;2.88;;;4.60;99.90;;;;;;5010876;28;20041;-70
2022/05/09 04:32:59;;;;;;;17.60;3.97;;;4.60;99.90;;;;;;4994760;28;20058;-70
2022/05/09 04:35:25;;;;;;;13.57;4.30;;;4.70;99.90;;;;;;5011017;28;20411;-70
2022/05/09 04:37:53;;;;;;;12.88;3.40;;;4.80;99.90;;;;;;5010906;28;20041;-70
2022/05/09 04:40:23;;;;;;;12.60;3.72;;;5.00;99.90;;;;;;5011397;28;20491;-70
2022/05/09 04:42:48;;;;;;;28.38;4.53;;;5.10;99.90;;;;;;5006752;28;20053;-70
2022/05/09 04:45:15;;;;;;;16.33;4.72;;;5.50;99.90;;;;;;5001308;28;20404;-71
2022/05/09 04:47:42;;;;;;;18.35;4.05;;;5.80;99.90;;;;;;4992360;28;20488;-70
2022/05/09 04:50:10;;;;;;;16.58;4.47;;;6.20;99.90;;;;;;4995224;28;20160;-71
2022/05/09 04:52:36;;;;;;;13.15;4.07;;;6.40;99.90;;;;;;5029185;28;20133;-71
2022/05/09 04:55:03;;;;;;;16.60;3.80;;;6.60;99.90;;;;;;5030329;28;20135;-71
2022/05/09 04:57:29;;;;;;;21.13;4.00;;;6.80;99.90;;;;;;5030602;28;20099;-70
2022/05/09 04:59:55;;;;;;;19.83;4.38;;;6.90;99.90;;;;;;5030309;28;20045;-70
2022/05/09 05:02:20;;;;;;;25.98;5.43;;;7.10;99.90;;;;;;5036154;28;20115;-70
2022/05/09 05:04:46;;;;;;;16.98;4.88;;;7.20;99.90;;;;;;5009713;28;20561;-71
2022/05/09 05:07:12;;;;;;;10.55;3.60;;;7.20;99.90;;;;;;4995138;28;20071;-71
2022/05/09 05:09:38;;;;;;;22.33;4.47;;;7.20;99.90;;;;;;5026676;28;20057;-71
2022/05/09 05:12:04;;;;;;;21.15;4.85;;;7.40;99.90;;;;;;5034509;28;20045;-71
2022/05/09 05:14:30;;;;;;;16.65;4.00;;;7.50;99.90;;;;;;5013669;28;20125;-71
2022/05/09 05:17:02;;;;;;;15.27;4.85;;;7.80;99.90;;;;;;5028562;28;20116;-72
2022/05/09 05:19:35;;;;;;;17.65;5.05;;;7.90;99.90;;;;;;5030385;28;20049;-71
2022/05/09 05:22:02;;;;;;;23.65;5.35;;;8.10;99.90;;;;;;5027862;28;20391;-71
2022/05/09 05:24:27;;;;;;;20.75;5.93;;;8.30;99.90;;;;;;5030447;28;20048;-71
2022/05/09 05:26:56;;;;;;;24.92;5.95;;;8.40;99.90;;;;;;5029084;28;20049;-71
2022/05/09 05:29:22;;;;;;;36.33;6.72;;;8.50;99.90;;;;;;5014145;28;20053;-71
2022/05/09 05:31:49;;;;;;;21.38;4.95;;;8.60;99.90;;;;;;5004370;28;20075;-71
2022/05/09 05:34:15;;;;;;;23.60;5.72;;;8.70;99.90;;;;;;5011243;28;20112;-72
2022/05/09 05:36:41;;;;;;;20.20;5.35;;;8.80;99.90;;;;;;5010687;28;20060;-71
2022/05/09 05:39:09;;;;;;;20.85;5.00;;;8.90;99.90;;;;;;4977062;28;20053;-71
2022/05/09 05:41:36;;;;;;;24.90;6.07;;;8.90;99.90;;;;;;5010644;28;20115;-71
2022/05/09 05:44:02;;;;;;;23.42;4.57;;;8.90;99.90;;;;;;5009913;28;20060;-71
2022/05/09 05:46:28;;;;;;;14.20;5.03;;;9.10;99.90;;;;;;5010033;28;20550;-71
2022/05/09 05:48:54;;;;;;;21.10;4.57;;;9.30;99.90;;;;;;5006947;28;20141;-70
2022/05/09 05:51:19;;;;;;;21.98;3.95;;;9.50;99.90;;;;;;4993826;28;20049;-70
2022/05/09 05:53:45;;;;;;;21.48;3.67;;;9.60;99.90;;;;;;4992506;28;20049;-71
2022/05/09 05:56:12;;;;;;;16.08;4.20;;;9.50;99.90;;;;;;5009443;28;20495;-71
2022/05/09 05:58:39;;;;;;;21.92;4.47;;;9.50;99.90;;;;;;4993743;28;20045;-71
2022/05/09 06:01:05;;;;;;;18.42;4.28;;;9.50;99.90;;;;;;5005244;28;20042;-71
2022/05/09 06:03:30;;;;;;;16.77;4.43;;;9.50;99.90;;;;;;4973911;28;20054;-71
2022/05/09 06:05:56;;;;;;;15.82;4.53;;;9.50;99.90;;;;;;5006467;28;20045;-71
2022/05/09 06:08:22;;;;;;;23.63;4.88;;;9.60;99.90;;;;;;4993080;28;20050;-70
2022/05/09 06:10:48;;;;;;;26.13;4.93;;;9.60;99.90;;;;;;5008553;28;20100;-71
2022/05/09 06:13:14;;;;;;;16.80;4.63;;;9.70;99.90;;;;;;5009000;28;20498;-71
2022/05/09 06:15:42;;;;;;;24.95;5.18;;;9.90;99.90;;;;;;5008934;28;20064;-71
2022/05/09 06:18:09;;;;;;;19.25;5.35;;;9.90;99.90;;;;;;5008659;28;20045;-71
2022/05/09 06:20:40;;;;;;;31.52;5.45;;;10.00;99.90;;;;;;4993458;28;20052;-71
2022/05/09 06:23:08;;;;;;;22.90;5.20;;;10.00;99.90;;;;;;4992065;28;20057;-70
2022/05/09 06:25:34;;;;;;;16.90;4.80;;;10.10;99.90;;;;;;5009422;28;20045;-71
2022/05/09 06:28:02;;;;;;;18.50;4.95;;;10.10;99.90;;;;;;5007985;28;20516;-70
2022/05/09 06:30:28;;;;;;;13.23;4.20;;;10.10;99.90;;;;;;5008438;28;20048;-70
2022/05/09 06:32:55;;;;;;;18.80;5.00;;;10.20;99.90;;;;;;4990674;28;20046;-71
2022/05/09 06:35:24;;;;;;;12.65;4.43;;;10.20;99.90;;;;;;4989729;28;20045;-72
2022/05/09 06:37:59;;;;;;;24.20;5.50;;;10.30;99.90;;;;;;5008614;28;20128;-71
2022/05/09 06:40:25;;;;;;;19.27;4.80;;;10.40;99.90;;;;;;5008162;28;20051;-71
2022/05/09 06:42:54;;;;;;;23.48;5.03;;;10.60;99.90;;;;;;5008626;28;20057;-70
2022/05/09 06:45:20;;;;;;;23.33;5.80;;;10.80;99.90;;;;;;4992339;28;20044;-71
2022/05/09 06:47:48;;;;;;;15.10;4.80;;;11.30;99.90;;;;;;5008048;28;20042;-71
2022/05/09 06:50:14;;;;;;;25.95;5.63;;;11.60;99.90;;;;;;5026062;28;20458;-71
2022/05/09 06:52:41;;;;;;;21.48;6.25;;;12.00;99.90;;;;;;5028144;28;20059;-71
2022/05/09 06:55:09;;;;;;;22.85;6.63;;;12.10;99.90;;;;;;5028598;28;20084;-71
2022/05/09 06:57:43;;;;;;;24.02;6.75;;;12.30;99.90;;;;;;5016341;28;20504;-71
2022/05/09 07:00:16;;;;;;;20.15;5.03;;;12.50;99.90;;;;;;5024228;28;20052;-70
2022/05/09 07:02:42;;;;;;;19.55;6.13;;;12.80;99.90;;;;;;4995856;28;20132;-71
2022/05/09 07:05:10;;;;;;;15.05;4.20;;;13.00;99.90;;;;;;5007674;28;20136;-71
2022/05/09 07:07:37;;;;;;;17.90;5.88;;;13.30;99.90;;;;;;5008759;28;20452;-71
2022/05/09 07:10:04;;;;;;;15.13;5.13;;;13.30;99.90;;;;;;5007501;28;20049;-71
2022/05/09 07:12:30;;;;;;;19.65;4.68;;;13.50;99.90;;;;;;5008830;28;20056;-71
2022/05/09 07:14:56;;;;;;;12.43;4.13;;;13.60;99.20;;;;;;5011515;28;20041;-70
2022/05/09 07:17:21;;;;;;;15.15;5.40;;;13.80;96.20;;;;;;5009122;28;20087;-71
2022/05/09 07:19:47;;;;;;;23.13;5.35;;;13.80;96.20;;;;;;5008135;28;20038;-71
2022/05/09 07:22:13;;;;;;;15.52;4.97;;;14.00;96.60;;;;;;5007313;28;20288;-71
2022/05/09 07:24:40;;;;;;;23.70;6.40;;;14.30;93.00;;;;;;5005253;28;20045;-69
2022/05/09 07:27:07;;;;;;;16.80;4.70;;;14.50;93.30;;;;;;4992002;28;20064;-71
2022/05/09 07:29:33;;;;;;;11.98;4.25;;;14.60;88.00;;;;;;5008447;28;20045;-70
2022/05/09 07:31:59;;;;;;;15.10;4.57;;;14.60;84.80;;;;;;5007371;28;20045;-70
2022/05/09 07:34:24;;;;;;;15.13;4.22;;;14.80;87.40;;;;;;5008623;28;20045;-71
2022/05/09 07:36:50;;;;;;;13.68;4.28;;;15.00;91.70;;;;;;5007741;28;20050;-70
2022/05/09 07:39:16;;;;;;;13.57;3.63;;;15.10;77.90;;;;;;5007873;28;20114;-71
2022/05/09 07:41:42;;;;;;;10.00;3.50;;;15.30;71.10;;;;;;5011365;28;20045;-71
2022/05/09 07:44:08;;;;;;;11.02;3.80;;;15.40;72.00;;;;;;5011521;28;20049;-70
2022/05/09 07:46:34;;;;;;;16.35;4.63;;;15.50;58.20;;;;;;5011484;28;20492;-69
2022/05/09 07:49:00;;;;;;;16.30;3.83;;;15.70;62.00;;;;;;5010943;28;20060;-70
2022/05/09 07:51:26;;;;;;;12.27;4.65;;;15.80;60.10;;;;;;5012550;28;20061;-70
2022/05/09 07:53:52;;;;;;;10.75;4.40;;;15.90;47.50;;;;;;5011426;28;20407;-69
2022/05/09 07:56:17;;;;;;;13.60;4.55;;;16.00;55.50;;;;;;5012815;28;20092;-70
2022/05/09 07:58:43;;;;;;;12.13;3.53;;;16.10;50.70;;;;;;5011287;28;20116;-70
2022/05/09 08:01:09;;;;;;;12.95;4.15;;;16.30;58.70;;;;;;5011609;28;20045;-70
2022/05/09 08:03:37;;;;;;;13.82;3.97;;;16.40;58.00;;;;;;4995693;28;20057;-70
2022/05/09 08:06:04;;;;;;;12.50;4.05;;;16.60;60.60;;;;;;5012904;28;20049;-70
2022/05/09 08:08:32;;;;;;;15.82;3.88;;;16.90;39.80;;;;;;5011025;28;20051;-70
2022/05/09 08:11:00;;;;;;;9.90;3.78;;;16.90;36.00;;;;;;5008737;28;20438;-70
2022/05/09 08:13:29;;;;;;;9.73;3.10;;;17.10;37.00;;;;;;5019527;28;20068;-70
2022/05/09 08:15:55;;;;;;;12.80;3.78;;;17.40;31.40;;;;;;5025299;28;20053;-70
2022/05/09 08:18:21;;;;;;;11.32;3.40;;;17.60;35.00;;;;;;5001510;28;20057;-70
2022/05/09 08:20:48;;;;;;;12.18;3.40;;;17.50;24.00;;;;;;5024113;28;20104;-70
2022/05/09 08:23:19;;;;;;;12.98;3.70;;;17.60;23.80;;;;;;5009108;28;20111;-70
2022/05/09 08:25:48;;;;;;;8.07;3.25;;;17.50;25.10;;;;;;5011203;28;20072;-70
2022/05/09 08:28:15;;;;;;;11.52;3.75;;;17.70;31.30;;;;;;5027197;28;20080;-70
2022/05/09 08:30:43;;;;;;;12.25;3.85;;;17.70;24.60;;;;;;4991980;28;20090;-70
2022/05/09 08:33:18;;;;;;;14.90;3.63;;;17.80;27.70;;;;;;5009850;28;20565;-70
2022/05/09 08:35:46;;;;;;;14.40;3.58;;;18.10;28.20;;;;;;5029140;28;20041;-70
2022/05/09 08:38:12;;;;;;;17.73;5.40;;;18.10;23.00;;;;;;5012328;28;20049;-70
2022/05/09 08:40:57;;;;;;;13.57;4.00;;;18.00;23.50;;;;;;5007049;28;20045;-70
2022/05/09 08:44:00;;;;;;;14.02;3.97;;;18.00;27.80;;;;;;5008584;28;20058;-70
2022/05/09 08:46:48;;;;;;;15.90;3.70;;;18.00;28.20;;;;;;5008215;28;20416;-70
2022/05/09 08:49:25;;;;;;;10.15;4.05;;;18.10;28.80;;;;;;5017886;28;20045;-70
2022/05/09 08:52:18;;;;;;;17.17;4.28;;;18.40;19.80;;;;;;5045468;28;20131;-70
2022/05/09 08:54:44;;;;;;;11.95;3.90;;;18.40;21.10;;;;;;5028149;28;20053;-70
2022/05/09 08:57:18;;;;;;;9.35;3.55;;;18.60;24.30;;;;;;5028776;28;20053;-70
2022/05/09 09:00:11;;;;;;;9.27;3.17;;;18.60;23.80;;;;;;5028837;28;20091;-71
2022/05/09 09:02:40;;;;;;;8.15;3.28;;;18.60;20.30;;;;;;5009114;28;20057;-70
2022/05/09 09:05:11;;;;;;;12.73;3.33;;;18.60;21.40;;;;;;5010731;28;20045;-70
2022/05/09 09:07:53;;;;;;;15.43;3.30;;;18.90;20.10;;;;;;5010150;28;20077;-70
2022/05/09 09:10:29;;;;;;;9.90;3.88;;;19.10;23.70;;;;;;5020994;28;20510;-70
2022/05/09 09:13:19;;;;;;;9.38;3.45;;;19.10;20.50;;;;;;5030630;28;20064;-70
2022/05/09 09:16:12;;;;;;;9.85;3.50;;;18.70;24.40;;;;;;5030087;28;20132;-70
2022/05/09 09:18:56;;;;;;;11.25;4.05;;;18.50;24.00;;;;;;5009817;28;20057;-71
2022/05/09 09:22:06;;;;;;;14.43;3.85;;;18.10;25.10;;;;;;5006228;28;20598;-71
2022/05/09 09:25:05;;;;;;;19.00;3.88;;;17.90;32.10;;;;;;5025643;28;20037;-71
2022/05/09 09:27:44;;;;;;;14.18;3.80;;;18.20;37.20;;;;;;5025317;28;20080;-70
2022/05/09 09:30:11;;;;;;;;;;;18.40;32.90;;;;;;5011519;28;20618;-71
2022/05/09 09:32:40;;;;;;;11.75;3.45;;;18.50;28.10;;;;;;5043218;28;19948;-70
2022/05/09 09:35:31;;;;;;;17.88;4.15;;;18.50;36.20;;;;;;5010470;28;20426;-71
2022/05/09 09:38:00;;;;;;;17.77;3.83;;;18.60;34.50;;;;;;5010483;28;20128;-71
2022/05/09 09:40:26;;;;;;;18.42;4.05;;;18.50;28.50;;;;;;5010063;28;20049;-71
2022/05/09 09:43:01;;;;;;;15.38;3.97;;;18.60;27.90;;;;;;5047445;28;20087;-71
2022/05/09 09:45:49;;;;;;;13.43;3.45;;;18.60;31.80;;;;;;5029136;28;20122;-70
2022/05/09 09:48:19;;;;;;;15.65;4.68;;;18.60;34.30;;;;;;5029164;28;20163;-71
2022/05/09 09:51:07;;;;;;;14.73;3.95;;;18.60;28.10;;;;;;5012992;28;20434;-71
2022/05/09 09:53:34;;;;;;;11.13;3.30;;;18.60;28.70;;;;;;5005660;28;20507;-70
2022/05/09 09:56:10;;;;;;;17.48;4.10;;;18.60;36.40;;;;;;4990153;28;20042;-71
2022/05/09 09:58:42;;;;;;;16.13;3.95;;;18.80;29.60;;;;;;5006185;28;20123;-71
2022/05/09 10:01:21;;;;;;;15.63;4.20;;;18.90;21.60;;;;;;5032361;28;20050;-71
2022/05/09 10:04:03;;;;;;;14.85;4.43;;;18.70;19.30;;;;;;5009220;28;20518;-70
2022/05/09 10:06:29;;;;;;;15.65;3.80;;;18.90;30.50;;;;;;4992511;28;20049;-70
2022/05/09 10:09:01;;;;;;;10.90;3.22;;;19.10;33.80;;;;;;5009133;28;20053;-70
2022/05/09 10:11:30;;;;;;;9.88;3.67;;;19.40;22.10;;;;;;5024999;28;20056;-70
2022/05/09 10:13:59;;;;;;;12.18;3.30;;;19.50;24.50;;;;;;5010724;28;20053;-69
2022/05/09 10:16:27;;;;;;;12.48;3.00;;;19.60;21.40;;;;;;5007743;28;20049;-70
2022/05/09 10:18:54;;;;;;;12.68;3.58;;;19.60;20.40;;;;;;5009152;28;20480;-70
2022/05/09 10:24:49;;;;;;;9.38;3.30;;;20.10;21.40;;;;;;5007228;28;20049;-70
2022/05/09 10:27:22;;;;;;;14.20;3.85;;;20.10;18.90;;;;;;5042033;28;20053;-70
2022/05/09 10:29:51;;;;;;;10.45;3.35;;;20.20;24.70;;;;;;5041028;28;20054;-71
2022/05/09 10:32:27;;;;;;;14.27;3.88;;;20.00;19.70;;;;;;5008161;28;20049;-70
2022/05/09 10:35:02;;;;;;;11.32;3.60;;;19.80;23.30;;;;;;5027525;28;20061;-71
2022/05/09 10:37:40;;;;;;;11.93;3.17;;;19.70;19.30;;;;;;5024796;28;20026;-71
2022/05/09 10:40:16;;;;;;;12.80;3.85;;;19.50;19.30;;;;;;5023965;28;20054;-70
2022/05/09 10:42:48;;;;;;;10.82;3.58;;;19.40;26.60;;;;;;5024352;28;20467;-71
2022/05/09 10:45:27;;;;;;;11.30;3.22;;;19.10;21.90;;;;;;5026369;28;20060;-71
2022/05/09 10:47:56;;;;;;;8.52;3.22;;;19.10;17.60;;;;;;4992042;28;20352;-71
2022/05/09 10:50:49;;;;;;;12.52;3.65;;;19.30;19.90;;;;;;5003478;28;20086;-71
2022/05/09 10:53:39;;;;;;;13.82;3.25;;;19.20;16.50;;;;;;4988746;28;20054;-71
2022/05/09 10:56:23;;;;;;;10.02;3.40;;;18.90;20.10;;;;;;4994862;28;20404;-71
2022/05/09 10:59:00;;;;;;;12.07;3.20;;;18.90;19.20;;;;;;4987963;28;20488;-71
2022/05/09 11:01:31;;;;;;;12.27;3.40;;;19.00;18.10;;;;;;4987838;28;20140;-71
2022/05/09 11:03:57;;;;;;;12.48;3.50;;;18.90;17.80;;;;;;4988356;28;20455;-71
2022/05/09 11:06:59;;;;;;;10.13;3.00;;;18.80;19.30;;;;;;5006160;28;20061;-71
2022/05/09 11:09:45;;;;;;;13.77;3.10;;;18.90;20.70;;;;;;4988415;28;20496;-70
2022/05/09 11:12:22;;;;;;;7.97;3.17;;;18.90;17.60;;;;;;4988283;28;20181;-71
2022/05/09 11:15:04;;;;;;;12.20;2.95;;;18.70;23.30;;;;;;4972972;28;20065;-71
2022/05/09 11:17:36;;;;;;;13.35;2.97;;;18.80;18.50;;;;;;5002276;28;20536;-71
2022/05/09 11:20:29;;;;;;;14.48;3.58;;;18.80;19.40;;;;;;5008111;28;20128;-71
2022/05/09 11:23:23;;;;;;;8.82;2.30;;;18.90;15.20;;;;;;5008340;28;20061;-71
2022/05/09 11:26:07;;;;;;;7.95;2.67;;;18.90;19.50;;;;;;5026313;28;20089;-71
2022/05/09 11:29:14;;;;;;;9.32;2.63;;;19.30;15.50;;;;;;4969165;28;20370;-70
2022/05/09 11:32:09;;;;;;;17.65;3.80;;;19.70;16.90;;;;;;4901627;28;20094;-71
2022/05/09 11:35:07;;;;;;;9.63;3.13;;;19.90;11.50;;;;;;5001006;28;20129;-70
2022/05/09 11:37:38;;;;;;;9.32;3.13;;;19.90;9.80;;;;;;5005732;28;20057;-71
2022/05/09 11:40:27;;;;;;;14.07;3.80;;;19.70;14.80;;;;;;4973285;28;20041;-70
2022/05/09 11:46:07;;;;;;;7.43;2.67;;;19.30;16.70;;;;;;4945286;29;20157;-70
2022/05/09 11:48:44;;;;;;;9.63;3.15;;;19.50;17.40;;;;;;4921764;29;20055;-70
2022/05/09 11:51:39;;;;;;;16.00;3.20;;;19.50;12.30;;;;;;4993145;28;20533;-71
2022/05/09 11:54:08;;;;;;;17.75;3.78;;;19.60;12.80;;;;;;4973232;28;20054;-70
2022/05/09 11:56:36;;;;;;;17.33;3.20;;;19.70;13.30;;;;;;4988150;28;20538;-70
2022/05/09 11:59:04;;;;;;;10.10;2.75;;;20.00;15.90;;;;;;5000708;28;20259;-70
2022/05/09 12:01:59;;;;;;;14.15;2.67;;;20.20;10.50;;;;;;5001387;28;20081;-71
2022/05/09 12:04:41;;;;;;;9.38;2.65;;;20.40;10.50;;;;;;4987515;28;20137;-71
2022/05/09 12:07:26;;;;;;;10.73;2.38;;;20.50;10.50;;;;;;4988361;28;20046;-70
2022/05/09 12:10:01;;;;;;;8.70;2.58;;;20.60;17.40;;;;;;5007048;28;20546;-71
2022/05/09 12:12:49;;;;;;;12.80;2.78;;;20.60;10.00;;;;;;4987475;28;20061;-70
2022/05/09 12:15:15;;;;;;;11.07;3.25;;;20.70;10.40;;;;;;5005105;28;20077;-71
2022/05/09 12:17:50;;;;;;;8.80;2.80;;;20.50;8.10;;;;;;5004183;28;20054;-71
2022/05/09 12:20:28;;;;;;;17.80;2.85;;;20.30;8.50;;;;;;5004435;28;20054;-71
2022/05/09 12:22:59;;;;;;;13.10;2.95;;;20.30;7.70;;;;;;4988720;28;20042;-71
2022/05/09 12:25:38;;;;;;;8.52;3.17;;;20.10;6.90;;;;;;5004441;28;20088;-71
2022/05/09 12:28:16;;;;;;;9.07;3.13;;;20.00;10.60;;;;;;5008447;28;20400;-69
2022/05/09 12:30:59;;;;;;;10.32;2.80;;;20.10;9.70;;;;;;5007143;28;20081;-69
2022/05/09 12:33:47;;;;;;;12.88;3.17;;;20.10;10.80;;;;;;4992388;28;20107;-69
2022/05/09 12:36:23;;;;;;;7.93;2.78;;;20.20;12.60;;;;;;4992217;28;20077;-69
2022/05/09 12:39:01;;;;;;;13.10;2.72;;;20.30;8.40;;;;;;4990675;28;20057;-69
2022/05/09 12:41:32;;;;;;;15.55;2.13;;;20.40;9.40;;;;;;4991283;28;20541;-69
2022/05/09 12:44:06;;;;;;;8.13;2.78;;;20.50;8.90;;;;;;4996700;28;20078;-69
2022/05/09 12:46:46;;;;;;;18.23;2.78;;;20.60;9.30;;;;;;5010283;28;20115;-69
2022/05/09 12:49:14;;;;;;;11.45;2.47;;;20.70;7.40;;;;;;5016911;28;20569;-69
2022/05/09 12:51:45;;;;;;;10.50;3.05;;;20.70;7.70;;;;;;5026379;28;20045;-69
2022/05/09 12:54:14;;;;;;;10.15;2.90;;;20.60;8.30;;;;;;5027852;28;20045;-69
2022/05/09 12:56:53;;;;;;;14.43;3.13;;;20.30;9.70;;;;;;5020369;28;20081;-69
2022/05/09 12:59:20;;;;;;;25.27;3.50;;;20.00;7.70;;;;;;5004154;28;20489;-69
2022/05/09 13:01:55;;;;;;;6.53;2.50;;;20.10;11.40;;;;;;5003991;28;20058;-69
2022/05/09 13:04:32;;;;;;;7.40;2.60;;;20.10;3.90;;;;;;5004954;28;20046;-70
2022/05/09 13:07:07;;;;;;;11.55;2.50;;;20.00;8.90;;;;;;4987986;28;20084;-69
2022/05/09 13:09:36;;;;;;;11.30;2.65;;;20.00;10.30;;;;;;5003717;28;20045;-69
2022/05/09 13:12:04;;;;;;;11.35;2.50;;;20.00;9.10;;;;;;5004647;28;20096;-70
2022/05/09 13:15:00;;;;;;;7.57;2.45;;;19.80;9.50;;;;;;5006350;28;20131;-69